AirNav   Everest Fuels
 
 1407 users online  

7MO3 B S Ranch Airport
Pineville, Missouri, USA

GOING TO PINEVILLE?


FAA INFORMATION EFFECTIVE 01 DECEMBER 2022

Location

FAA Identifier: 7MO3
Lat/Long: 36-36-00.2620N 094-21-00.7670W
36-36.004367N 094-21.012783W
36.6000728,-94.3502131
(estimated)
Elevation: 1000 ft. / 305 m (estimated)
Variation: 05E (1985)
From city: 1 mile E of PINEVILLE, MO
Time zone: UTC -6 (UTC -5 during Daylight Saving Time)
Zip code: 64856

Airport Operations

Airport use: Private use. Permission required prior to landing
Activation date: 12/1959
Control tower: no
ARTCC: MEMPHIS CENTER
FSS: COLUMBIA FLIGHT SERVICE STATION
Attendance: UNATNDD
Wind indicator: yes
Segmented circle: no

Airport Communications

WX AWOS-3PT at VBT (17 nm S): 134.975 (479-273-9198)
WX AWOS-3PT at ROG (18 nm SE): 134.375 (479-631-9196)
WX AWOS-3PT at GMJ (19 nm W): 119.025 (918-786-8350)
WX ASOS at XNA (19 nm S): 119.425 (479-203-0109)

Nearby radio navigation aids

VOR radial/distance  VOR name  Freq  Var
RZCr328/23.9RAZORBACK VORTAC116.4004E

 
NDB name  Hdg/Dist  Freq  Var  ID
SILOAM SPRINGS011/25.528404ESLG ... .-.. --.

Airport Services

Airframe service: NONE
Powerplant service: NONE

Runway Information

Runway E/W

Dimensions: 2250 x 45 ft. / 686 x 14 m
Surface: turf
RUNWAY E  RUNWAY W
Traffic pattern: leftleft
Obstructions: none50 ft. trees, 100 ft. from runway

Airport Ownership and Management from official FAA records

Ownership: Privately-owned
Owner: DOYLE HERRIN
858 DEAD END LANE
PINEVILLE, MO 64856
Phone 417-223-4973
Manager: DOYLE HERRIN
858 DEAD END LANE
PINEVILLE, MO 64856
Phone 417-223-4973

Additional Remarks

WATCH FOR LIVESTOCK ON RWY.
FOR CD CTC MEMPHIS ARTCC AT 901-368-8453/8449.

Instrument Procedures

There are no published instrument procedures at 7MO3.

Some nearby airports with instrument procedures:

KEOS - Neosho Hugh Robinson Airport (13 nm N)
5M5 - Crystal Lake Airport (16 nm S)
KVBT - Bentonville Municipal Airport/Louise M Thaden Field (17 nm S)
KROG - Rogers Executive Airport - Carter Field (18 nm SE)
KGMJ - Grove Regional Airport (19 nm W)
KXNA - Northwest Arkansas National Airport (19 nm S)
 
Loc | Ops | Rwys | IFR | FBO | Links
Com | Nav | Svcs | Stats | Notes
Area around 7MO3 (B S Ranch Airport)
 
Road maps at: MapQuest Bing Google
 
Aerial photo
No photo
 
Sectional chart

 
Airport distance calculator
Flying to B S Ranch Airport? Find the distance to fly.

From to 7MO3

Sunrise and sunset
Times for 02-Dec-2022
 Local
(UTC-6)
 Zulu
(UTC)
Morning civil twilight06:4512:45
Sunrise07:1313:13
Sunset17:0123:01
Evening civil twilight17:2923:29

Current date and time
Zulu (UTC)  02-Dec-2022 17:14:13
Local (UTC-6)  02-Dec-2022 11:14:13
 
METAR
KVBT 
16nm SE 
021656Z AUTO 19013G20KT 10SM OVC012 11/08 A2999 RMK AO2 SLP160 T01110083
KGMJ 
18nm W 
021655Z AUTO 20019G26KT 10SM OVC015 12/09 A2993 RMK AO2
KROG 
19nm SE 
021658Z 10SM OVC012 11/08 A2999 RMK AO2 SLP154 T01110083 $
KXNA 
19nm S 
021653Z 19018G27KT 10SM OVC011 11/08 A2999 RMK AO2 PK WND 18027/1649 RAB30E40 SLP152 P0000 T01110078
KHFJ 
25nm NE 
021655Z AUTO 19019G25KT 10SM OVC014 11/08 A2992 RMK AO2
KSLG 
25nm S 
021656Z AUTO 19017KT 10SM OVC013 10/08 A2999 RMK AO2 SLP155 T01000078
TAF
KROG 
19nm SE 
021121Z 0212/0312 19014G21KT P6SM OVC018 WS020/21045KT TEMPO 0212/0216 4SM -DZ BR OVC009 FM021600 19022G30KT P6SM OVC015 FM030100 21018G25KT P6SM OVC012 FM030400 25015G23KT P6SM BKN018 FM030600 32020G30KT P6SM BKN010 FM030800 36015G23KT P6SM SCT018
KXNA 
19nm S 
021121Z 0212/0312 19014G21KT P6SM OVC018 WS020/21045KT TEMPO 0212/0216 4SM -DZ BR OVC009 FM021600 19022G30KT P6SM OVC015 FM030100 21018G25KT P6SM OVC012 FM030400 25015G23KT P6SM BKN018 FM030600 32020G30KT P6SM BKN010 FM030800 36015G23KT P6SM SCT018
NOTAMs
Click for the latest NOTAMs
NOTAMs are issued by the DoD/FAA and will open in a separate window not controlled by AirNav.

 

 
 

Would you like to see your business listed on this page?

 If your business provides an interesting product or service to pilots, flight crews, aircraft, or users of the B S Ranch Airport, you should consider listing it here.  To start the listing process, click on the button below
 
Add a business
 

Other Pages about B S Ranch Airport

Update a link
 
Copyright © AirNav, LLC. All rights reserved. Privacy Policy  Contact